createdAt,value
2018-09-11T00:00:56.548Z,7
2018-09-11T00:05:58.945Z,6
2018-09-11T00:11:01.427Z,4
2018-09-11T00:16:03.911Z,4
2018-09-11T00:21:06.431Z,5
2018-09-11T00:26:08.802Z,5
2018-09-11T00:31:11.526Z,4
2018-09-11T00:36:13.691Z,6
2018-09-11T00:41:16.174Z,4
2018-09-11T00:46:19.026Z,4
2018-09-11T00:51:21.560Z,4
2018-09-11T00:56:23.600Z,7
2018-09-11T01:01:26.017Z,4
2018-09-11T01:06:28.452Z,4
2018-09-11T01:11:30.894Z,5
2018-09-11T01:16:33.392Z,5
2018-09-11T01:21:35.826Z,4
2018-09-11T01:26:38.418Z,8
2018-09-11T01:31:40.749Z,6
2018-09-11T01:36:43.196Z,6
2018-09-11T01:41:45.666Z,4
2018-09-11T01:46:48.189Z,5
2018-09-11T01:51:50.576Z,4
2018-09-11T01:56:53.103Z,4
2018-09-11T02:01:55.482Z,5
2018-09-11T02:06:57.950Z,8
2018-09-11T02:12:00.403Z,5
2018-09-11T02:17:03.016Z,5
2018-09-11T02:22:10.345Z,9
2018-09-11T02:27:07.802Z,5
2018-09-11T02:32:10.258Z,7
2018-09-11T02:37:12.714Z,5
2018-09-11T02:42:15.163Z,5
2018-09-11T02:47:17.708Z,7
2018-09-11T02:52:20.088Z,5
2018-09-11T02:57:22.640Z,6
2018-09-11T03:02:25.014Z,5
2018-09-11T03:07:27.479Z,10
2018-09-11T03:12:30.004Z,8
2018-09-11T03:17:32.383Z,8
2018-09-11T03:22:34.819Z,10
2018-09-11T03:27:37.336Z,7
2018-09-11T03:32:39.720Z,8
2018-09-11T03:37:42.190Z,10
2018-09-11T03:42:44.649Z,12
2018-09-11T03:47:47.132Z,8
2018-09-11T03:52:49.673Z,12
2018-09-11T03:57:52.067Z,9
2018-09-11T04:02:54.479Z,7
2018-09-11T04:07:57.009Z,9
2018-09-11T04:12:59.395Z,9
2018-09-11T04:18:06.886Z,10
2018-09-11T04:23:04.330Z,9
2018-09-11T04:28:11.884Z,7
2018-09-11T04:33:09.350Z,6
2018-09-11T04:38:11.753Z,8
2018-09-11T04:43:14.144Z,7
2018-09-11T04:48:16.614Z,9
2018-09-11T04:53:19.148Z,8
2018-09-11T04:58:21.520Z,11
2018-09-11T05:03:24.012Z,8
2018-09-11T05:08:26.441Z,10
2018-09-11T05:13:28.904Z,8
2018-09-11T05:18:31.434Z,7
2018-09-11T05:23:33.990Z,10
2018-09-11T05:28:36.335Z,10
2018-09-11T05:33:38.721Z,12
2018-09-11T05:38:41.281Z,9
2018-09-11T05:43:43.878Z,9
2018-09-11T05:48:46.094Z,11
2018-09-11T05:53:48.560Z,10
2018-09-11T05:58:51.027Z,8
2018-09-11T06:03:53.564Z,11
2018-09-11T06:08:55.934Z,8
2018-09-11T06:13:58.492Z,9
2018-09-11T06:19:00.849Z,8
2018-09-11T06:24:03.583Z,8
2018-09-11T06:29:05.813Z,7
2018-09-11T06:34:08.243Z,7
2018-09-11T06:39:10.891Z,8
2018-09-11T06:44:13.223Z,8
2018-09-11T06:49:15.597Z,8
2018-09-11T06:54:18.601Z,6
2018-09-11T06:59:20.831Z,10
2018-09-11T07:04:23.108Z,6
2018-09-11T07:09:25.538Z,7
2018-09-11T07:14:27.919Z,7
2018-09-11T07:19:30.788Z,7
2018-09-11T07:24:32.899Z,7
2018-09-11T07:29:35.284Z,6
2018-09-11T07:34:37.746Z,6
2018-09-11T07:39:40.341Z,8
2018-09-11T07:44:42.685Z,6
2018-09-11T07:49:45.143Z,7
2018-09-11T07:54:47.792Z,5
2018-09-11T07:59:50.124Z,5
2018-09-11T08:04:52.634Z,8
2018-09-11T08:09:54.968Z,4
2018-09-11T08:14:57.426Z,4
2018-09-11T08:19:59.919Z,5
2018-09-11T08:25:02.404Z,4
2018-09-11T08:30:04.871Z,4
2018-09-11T08:35:07.336Z,5
2018-09-11T08:40:09.751Z,4
2018-09-11T08:45:12.179Z,6
2018-09-11T08:50:14.829Z,3
2018-09-11T08:55:17.179Z,6
2018-09-11T09:00:19.690Z,4
2018-09-11T09:05:22.043Z,4
2018-09-11T09:10:25.261Z,7
2018-09-11T09:15:27.283Z,6
2018-09-11T09:20:29.425Z,5
2018-09-11T09:25:31.857Z,4
2018-09-11T09:30:34.334Z,5
2018-09-11T09:35:36.787Z,4
2018-09-11T09:40:39.230Z,3
2018-09-11T09:45:41.682Z,4
2018-09-11T09:50:44.174Z,4
2018-09-11T09:55:46.630Z,4
2018-09-11T10:00:49.124Z,5
2018-09-11T10:05:51.516Z,4
2018-09-11T10:10:53.971Z,3
2018-09-11T10:15:56.482Z,3
2018-09-11T10:20:58.892Z,4
2018-09-11T10:26:01.491Z,5
2018-09-11T10:31:03.894Z,4
2018-09-11T10:36:06.334Z,3
2018-09-11T10:41:08.746Z,7
2018-09-11T10:46:11.380Z,3
2018-09-11T10:51:13.696Z,6
2018-09-11T10:56:16.124Z,7
2018-09-11T11:01:23.561Z,8
2018-09-11T11:06:21.085Z,6
2018-09-11T11:11:23.489Z,5
2018-09-11T11:16:25.928Z,5
2018-09-11T11:21:29.185Z,6
2018-09-11T11:26:30.859Z,3
2018-09-11T11:31:33.466Z,4
2018-09-11T11:36:35.775Z,4
2018-09-11T11:41:38.510Z,4
2018-09-11T11:46:40.775Z,3
2018-09-11T11:51:43.275Z,4
2018-09-11T11:56:45.633Z,6
2018-09-11T12:01:48.227Z,3
2018-09-11T12:06:50.679Z,4
2018-09-11T12:11:53.023Z,4
2018-09-11T12:16:55.551Z,5
2018-09-11T12:21:57.948Z,3
2018-09-11T12:27:00.714Z,3
2018-09-11T12:32:07.839Z,3
2018-09-11T12:37:05.319Z,3
2018-09-11T12:42:07.925Z,6
2018-09-11T12:47:10.301Z,6
2018-09-11T12:52:12.734Z,3
2018-09-11T12:57:15.146Z,6
2018-09-11T13:02:17.687Z,5
2018-09-11T13:07:20.032Z,3
2018-09-11T13:12:27.664Z,6
2018-09-11T13:17:24.977Z,4
2018-09-11T13:22:27.443Z,4
2018-09-11T13:27:29.887Z,5
2018-09-11T13:32:32.384Z,7
2018-09-11T13:37:34.797Z,3
2018-09-11T13:42:37.343Z,6
2018-09-11T13:47:39.720Z,5
2018-09-11T13:52:42.152Z,4
2018-09-11T13:57:44.610Z,3
2018-09-11T14:02:47.082Z,3
2018-09-11T14:07:49.584Z,4
2018-09-11T14:12:51.991Z,5
2018-09-11T14:17:54.505Z,4
2018-09-11T14:22:56.927Z,5
2018-09-11T14:27:59.523Z,4
2018-09-11T14:33:07.034Z,5
2018-09-11T14:38:04.319Z,3
2018-09-11T14:43:06.781Z,5
2018-09-11T14:48:09.223Z,3
2018-09-11T14:53:11.763Z,3
2018-09-11T14:58:14.177Z,3
2018-09-11T15:03:16.591Z,14
2018-09-11T15:08:19.037Z,9
2018-09-11T15:13:21.872Z,5
2018-09-11T15:18:24.019Z,2
2018-09-11T15:23:26.411Z,3
2018-09-11T15:28:29.175Z,5
2018-09-11T15:33:31.381Z,4
2018-09-11T15:38:33.817Z,6
2018-09-11T15:43:36.306Z,2
2018-09-11T15:48:38.762Z,2
2018-09-11T15:53:41.191Z,5
2018-09-11T15:58:43.622Z,4
2018-09-11T16:03:46.107Z,5
2018-09-11T16:08:48.554Z,2
2018-09-11T16:13:51.093Z,5
2018-09-11T16:18:53.608Z,3
2018-09-11T16:23:55.954Z,4
2018-09-11T16:28:58.401Z,5
2018-09-11T16:34:00.834Z,4
2018-09-11T16:39:03.428Z,4
2018-09-11T16:44:06.284Z,4
2018-09-11T16:49:08.217Z,6
2018-09-11T16:54:10.717Z,3
2018-09-11T16:59:13.156Z,4
2018-09-11T17:04:15.614Z,3
2018-09-11T17:09:18.097Z,2
2018-09-11T17:14:20.511Z,4
2018-09-11T17:19:23.026Z,4
2018-09-11T17:24:25.450Z,3
2018-09-11T17:29:27.898Z,4
2018-09-11T17:34:30.345Z,3
2018-09-11T17:39:32.865Z,3
2018-09-11T17:44:35.342Z,2
2018-09-11T17:49:37.828Z,4
2018-09-11T17:54:40.236Z,4
2018-09-11T17:59:42.679Z,8
2018-09-11T18:04:45.106Z,4
2018-09-11T18:09:47.589Z,4
2018-09-11T18:14:50.169Z,7
2018-09-11T18:19:52.480Z,4
2018-09-11T18:24:54.935Z,3
2018-09-11T18:29:57.435Z,4
2018-09-11T18:34:59.870Z,2
2018-09-11T18:40:02.347Z,4
2018-09-11T18:45:04.834Z,3
2018-09-11T18:50:07.457Z,5
2018-09-11T18:55:09.712Z,5
2018-09-11T19:00:12.208Z,3
2018-09-11T19:05:14.667Z,7
2018-09-11T19:10:17.067Z,4
2018-09-11T19:15:19.699Z,5
2018-09-11T19:20:22.108Z,4
2018-09-11T19:25:24.423Z,4
2018-09-11T19:30:26.964Z,4
2018-09-11T19:35:29.403Z,4
2018-09-11T19:40:31.850Z,3
2018-09-11T19:45:34.590Z,3
2018-09-11T19:50:36.846Z,3
2018-09-11T19:55:39.192Z,3
2018-09-11T20:00:41.793Z,5
2018-09-11T20:05:44.134Z,6
2018-09-11T20:10:46.690Z,3
2018-09-11T20:15:49.024Z,4
2018-09-11T20:20:51.528Z,4
2018-09-11T20:25:53.979Z,4
2018-09-11T20:30:56.381Z,3
2018-09-11T20:35:58.863Z,3
2018-09-11T20:41:01.315Z,2
2018-09-11T20:46:03.785Z,2
2018-09-11T20:51:06.565Z,4
2018-09-11T20:56:08.730Z,5
2018-09-11T21:01:11.124Z,4
2018-09-11T21:06:13.677Z,3
2018-09-11T21:11:16.065Z,3
2018-09-11T21:16:18.543Z,3
2018-09-11T21:21:21.044Z,2
2018-09-11T21:26:23.425Z,3
2018-09-11T21:31:25.884Z,3
2018-09-11T21:36:28.366Z,3
2018-09-11T21:41:30.825Z,3
2018-09-11T21:46:33.265Z,3
2018-09-11T21:51:35.771Z,3
2018-09-11T21:56:38.221Z,4
2018-09-11T22:01:40.633Z,4
2018-09-11T22:06:43.108Z,3
2018-09-11T22:11:45.831Z,2
2018-09-11T22:16:48.024Z,3
2018-09-11T22:21:50.469Z,3
2018-09-11T22:26:53.055Z,3
2018-09-11T22:31:55.370Z,4
2018-09-11T22:36:57.868Z,4
2018-09-11T22:42:00.343Z,4
2018-09-11T22:47:02.773Z,6
2018-09-11T22:52:05.266Z,4
2018-09-11T22:57:07.989Z,5
2018-09-11T23:02:10.282Z,6
2018-09-11T23:07:12.681Z,7
2018-09-11T23:12:15.045Z,5
2018-09-11T23:17:17.547Z,5
2018-09-11T23:22:20.002Z,5
2018-09-11T23:27:22.621Z,4
2018-09-11T23:32:24.904Z,3
2018-09-11T23:37:27.361Z,4
2018-09-11T23:42:29.823Z,6
2018-09-11T23:47:32.276Z,5
2018-09-11T23:52:34.846Z,6
2018-09-11T23:57:37.221Z,8
